San Lorenzo de El Escorial, Spain
Current Conditions -  °F | °C
As of 9:00 PM on Wednesday 28 Jan 2015 (Local Time) from LEVS Reporting Station
Clear Clear  
Wind Chill: 43°   Ceiling: Unl
Heat Index: 43°   Visibility: 6mi
Dew Point: 34°   Wind: 0mph
Humidity: 70%   Direction: NA
Pressure: 30.21"   Gusts: NA
Location:  40.59°N, 4.15°W
Report Text: LEVS 282000Z 00000KT CAVOK 06/01 Q1023
Loading
Personal Weather Stations






























Interactive Weather Map New forecast layout! Learn more

10-Day Weather Forecast

Advertisements
Track Severe Weather on mobile